sensor_id;sensor_type;location;lat;lon;timestamp;P1;durP1;ratioP1;P2;durP2;ratioP2
4933;SDS011;2482;49.154;8.254;2024-03-23T00:53:08;6.70;;;5.30;;
4933;SDS011;2482;49.154;8.254;2024-03-23T00:55:37;11.30;;;5.77;;
4933;SDS011;2482;49.154;8.254;2024-03-23T00:58:04;8.00;;;5.90;;
4933;SDS011;2482;49.154;8.254;2024-03-23T01:00:31;8.00;;;5.43;;
4933;SDS011;2482;49.154;8.254;2024-03-23T01:02:58;8.00;;;5.63;;
4933;SDS011;2482;49.154;8.254;2024-03-23T01:05:24;12.20;;;6.07;;
4933;SDS011;2482;49.154;8.254;2024-03-23T01:07:52;9.03;;;5.90;;
4933;SDS011;2482;49.154;8.254;2024-03-23T01:10:19;9.60;;;6.50;;
4933;SDS011;2482;49.154;8.254;2024-03-23T01:12:45;6.57;;;5.80;;
4933;SDS011;2482;49.154;8.254;2024-03-23T01:15:11;9.63;;;5.70;;
4933;SDS011;2482;49.154;8.254;2024-03-23T01:17:38;7.53;;;6.10;;
4933;SDS011;2482;49.154;8.254;2024-03-23T01:20:04;10.43;;;7.00;;
4933;SDS011;2482;49.154;8.254;2024-03-23T01:22:31;8.47;;;6.40;;
4933;SDS011;2482;49.154;8.254;2024-03-23T01:24:58;10.20;;;5.60;;
4933;SDS011;2482;49.154;8.254;2024-03-23T01:27:24;8.33;;;6.03;;
4933;SDS011;2482;49.154;8.254;2024-03-23T01:29:50;9.83;;;6.33;;
4933;SDS011;2482;49.154;8.254;2024-03-23T01:32:18;9.03;;;5.30;;
4933;SDS011;2482;49.154;8.254;2024-03-23T01:34:44;8.20;;;5.57;;
4933;SDS011;2482;49.154;8.254;2024-03-23T01:37:10;6.80;;;5.40;;
4933;SDS011;2482;49.154;8.254;2024-03-23T01:39:37;7.57;;;5.90;;
4933;SDS011;2482;49.154;8.254;2024-03-23T01:42:03;11.23;;;5.77;;
4933;SDS011;2482;49.154;8.254;2024-03-23T01:44:29;7.87;;;6.50;;
4933;SDS011;2482;49.154;8.254;2024-03-23T01:46:56;13.70;;;5.97;;
4933;SDS011;2482;49.154;8.254;2024-03-23T01:49:23;6.53;;;5.13;;
4933;SDS011;2482;49.154;8.254;2024-03-23T01:51:50;6.93;;;5.30;;
4933;SDS011;2482;49.154;8.254;2024-03-23T01:54:16;6.50;;;5.30;;
4933;SDS011;2482;49.154;8.254;2024-03-23T01:56:42;7.97;;;5.27;;
4933;SDS011;2482;49.154;8.254;2024-03-23T01:59:08;9.80;;;4.97;;
4933;SDS011;2482;49.154;8.254;2024-03-23T02:01:35;6.20;;;4.57;;
4933;SDS011;2482;49.154;8.254;2024-03-23T02:04:01;6.43;;;4.80;;
4933;SDS011;2482;49.154;8.254;2024-03-23T02:06:28;5.37;;;4.87;;
4933;SDS011;2482;49.154;8.254;2024-03-23T02:08:55;7.87;;;5.67;;
4933;SDS011;2482;49.154;8.254;2024-03-23T02:11:21;8.07;;;4.53;;
4933;SDS011;2482;49.154;8.254;2024-03-23T02:13:48;7.83;;;5.10;;
4933;SDS011;2482;49.154;8.254;2024-03-23T02:16:14;6.60;;;5.20;;
4933;SDS011;2482;49.154;8.254;2024-03-23T02:18:40;7.70;;;5.07;;
4933;SDS011;2482;49.154;8.254;2024-03-23T02:21:06;7.30;;;5.10;;
4933;SDS011;2482;49.154;8.254;2024-03-23T02:23:32;6.37;;;5.03;;
4933;SDS011;2482;49.154;8.254;2024-03-23T02:25:59;6.47;;;5.37;;
4933;SDS011;2482;49.154;8.254;2024-03-23T02:28:25;6.40;;;4.70;;
4933;SDS011;2482;49.154;8.254;2024-03-23T02:30:51;7.50;;;5.20;;
4933;SDS011;2482;49.154;8.254;2024-03-23T02:33:17;8.10;;;5.17;;
4933;SDS011;2482;49.154;8.254;2024-03-23T02:35:44;7.30;;;5.10;;
4933;SDS011;2482;49.154;8.254;2024-03-23T02:38:11;8.93;;;5.33;;
4933;SDS011;2482;49.154;8.254;2024-03-23T02:40:37;6.47;;;5.50;;
4933;SDS011;2482;49.154;8.254;2024-03-23T02:43:03;14.27;;;5.83;;
4933;SDS011;2482;49.154;8.254;2024-03-23T02:45:29;11.33;;;5.90;;
4933;SDS011;2482;49.154;8.254;2024-03-23T02:47:57;13.93;;;5.43;;
4933;SDS011;2482;49.154;8.254;2024-03-23T02:50:24;7.37;;;5.90;;
4933;SDS011;2482;49.154;8.254;2024-03-23T02:52:50;10.10;;;6.97;;
4933;SDS011;2482;49.154;8.254;2024-03-23T02:55:16;9.63;;;7.67;;
4933;SDS011;2482;49.154;8.254;2024-03-23T02:57:42;8.07;;;6.50;;
4933;SDS011;2482;49.154;8.254;2024-03-23T03:00:08;11.40;;;7.33;;
4933;SDS011;2482;49.154;8.254;2024-03-23T03:02:36;11.60;;;6.70;;
4933;SDS011;2482;49.154;8.254;2024-03-23T03:05:03;11.60;;;7.97;;
4933;SDS011;2482;49.154;8.254;2024-03-23T03:07:31;10.67;;;7.60;;
4933;SDS011;2482;49.154;8.254;2024-03-23T03:09:57;10.70;;;7.30;;
4933;SDS011;2482;49.154;8.254;2024-03-23T03:12:23;19.00;;;7.57;;
4933;SDS011;2482;49.154;8.254;2024-03-23T03:14:49;10.73;;;7.30;;
4933;SDS011;2482;49.154;8.254;2024-03-23T03:17:15;29.17;;;7.47;;
4933;SDS011;2482;49.154;8.254;2024-03-23T03:19:43;14.27;;;7.40;;
4933;SDS011;2482;49.154;8.254;2024-03-23T03:22:09;9.93;;;7.40;;
4933;SDS011;2482;49.154;8.254;2024-03-23T03:24:36;11.77;;;6.87;;
4933;SDS011;2482;49.154;8.254;2024-03-23T03:27:02;9.80;;;6.80;;
4933;SDS011;2482;49.154;8.254;2024-03-23T03:29:28;11.83;;;8.03;;
4933;SDS011;2482;49.154;8.254;2024-03-23T03:32:01;12.20;;;7.60;;
4933;SDS011;2482;49.154;8.254;2024-03-23T03:34:28;13.60;;;8.07;;
4933;SDS011;2482;49.154;8.254;2024-03-23T03:36:54;15.27;;;8.70;;
4933;SDS011;2482;49.154;8.254;2024-03-23T03:39:21;12.97;;;8.50;;
4933;SDS011;2482;49.154;8.254;2024-03-23T03:41:48;16.30;;;9.57;;
4933;SDS011;2482;49.154;8.254;2024-03-23T03:44:15;12.83;;;8.67;;
4933;SDS011;2482;49.154;8.254;2024-03-23T03:46:42;12.87;;;8.40;;
4933;SDS011;2482;49.154;8.254;2024-03-23T03:49:09;16.53;;;9.53;;
4933;SDS011;2482;49.154;8.254;2024-03-23T03:51:35;13.00;;;8.70;;
4933;SDS011;2482;49.154;8.254;2024-03-23T03:54:01;16.33;;;9.80;;
4933;SDS011;2482;49.154;8.254;2024-03-23T03:56:28;14.97;;;9.50;;
4933;SDS011;2482;49.154;8.254;2024-03-23T03:58:54;16.07;;;10.20;;
4933;SDS011;2482;49.154;8.254;2024-03-23T04:01:21;13.13;;;9.00;;
4933;SDS011;2482;49.154;8.254;2024-03-23T04:03:48;14.50;;;10.00;;
4933;SDS011;2482;49.154;8.254;2024-03-23T04:06:20;12.43;;;7.57;;
4933;SDS011;2482;49.154;8.254;2024-03-23T04:08:46;14.83;;;9.07;;
4933;SDS011;2482;49.154;8.254;2024-03-23T04:11:13;14.63;;;8.90;;
4933;SDS011;2482;49.154;8.254;2024-03-23T04:13:39;12.80;;;8.30;;
4933;SDS011;2482;49.154;8.254;2024-03-23T04:16:07;14.30;;;8.70;;
4933;SDS011;2482;49.154;8.254;2024-03-23T04:18:34;18.53;;;8.83;;
4933;SDS011;2482;49.154;8.254;2024-03-23T04:21:01;11.80;;;7.60;;
4933;SDS011;2482;49.154;8.254;2024-03-23T04:23:28;10.80;;;6.93;;
4933;SDS011;2482;49.154;8.254;2024-03-23T04:25:54;12.67;;;7.10;;
4933;SDS011;2482;49.154;8.254;2024-03-23T04:28:20;8.70;;;6.20;;
4933;SDS011;2482;49.154;8.254;2024-03-23T04:30:47;9.87;;;7.40;;
4933;SDS011;2482;49.154;8.254;2024-03-23T04:33:14;10.00;;;5.77;;
4933;SDS011;2482;49.154;8.254;2024-03-23T04:35:40;9.00;;;5.40;;
4933;SDS011;2482;49.154;8.254;2024-03-23T04:38:06;9.20;;;5.03;;
4933;SDS011;2482;49.154;8.254;2024-03-23T04:40:32;6.00;;;4.60;;
4933;SDS011;2482;49.154;8.254;2024-03-23T04:42:59;5.43;;;4.30;;
4933;SDS011;2482;49.154;8.254;2024-03-23T04:45:26;5.67;;;4.13;;
4933;SDS011;2482;49.154;8.254;2024-03-23T04:47:52;6.50;;;3.77;;
4933;SDS011;2482;49.154;8.254;2024-03-23T04:50:18;3.87;;;3.00;;
4933;SDS011;2482;49.154;8.254;2024-03-23T04:52:44;4.00;;;3.00;;
4933;SDS011;2482;49.154;8.254;2024-03-23T04:55:11;4.50;;;2.40;;
4933;SDS011;2482;49.154;8.254;2024-03-23T04:57:37;3.97;;;2.27;;
4933;SDS011;2482;49.154;8.254;2024-03-23T05:00:04;2.63;;;1.77;;
4933;SDS011;2482;49.154;8.254;2024-03-23T05:02:42;3.93;;;2.07;;
4933;SDS011;2482;49.154;8.254;2024-03-23T05:05:11;4.50;;;2.13;;
4933;SDS011;2482;49.154;8.254;2024-03-23T05:07:38;2.43;;;2.10;;
4933;SDS011;2482;49.154;8.254;2024-03-23T05:10:04;3.00;;;1.90;;
4933;SDS011;2482;49.154;8.254;2024-03-23T05:12:30;2.17;;;1.97;;
4933;SDS011;2482;49.154;8.254;2024-03-23T05:14:57;3.37;;;2.00;;
4933;SDS011;2482;49.154;8.254;2024-03-23T05:17:23;2.40;;;1.87;;
4933;SDS011;2482;49.154;8.254;2024-03-23T05:19:50;1.60;;;1.50;;
4933;SDS011;2482;49.154;8.254;2024-03-23T05:22:16;3.43;;;2.07;;
4933;SDS011;2482;49.154;8.254;2024-03-23T05:24:44;1.57;;;1.40;;
4933;SDS011;2482;49.154;8.254;2024-03-23T05:27:12;2.27;;;1.87;;
4933;SDS011;2482;49.154;8.254;2024-03-23T05:29:38;1.93;;;1.50;;
4933;SDS011;2482;49.154;8.254;2024-03-23T05:32:04;1.40;;;1.30;;
4933;SDS011;2482;49.154;8.254;2024-03-23T05:34:30;1.57;;;1.37;;
4933;SDS011;2482;49.154;8.254;2024-03-23T05:36:56;1.50;;;1.30;;
4933;SDS011;2482;49.154;8.254;2024-03-23T05:39:22;1.70;;;1.27;;
4933;SDS011;2482;49.154;8.254;2024-03-23T05:41:50;1.20;;;1.10;;
4933;SDS011;2482;49.154;8.254;2024-03-23T05:44:16;1.30;;;1.20;;
4933;SDS011;2482;49.154;8.254;2024-03-23T05:46:45;1.17;;;1.07;;
4933;SDS011;2482;49.154;8.254;2024-03-23T05:49:18;1.60;;;0.90;;
4933;SDS011;2482;49.154;8.254;2024-03-23T05:51:45;1.20;;;1.10;;
4933;SDS011;2482;49.154;8.254;2024-03-23T05:54:11;1.20;;;1.10;;
4933;SDS011;2482;49.154;8.254;2024-03-23T05:56:37;1.30;;;1.20;;
4933;SDS011;2482;49.154;8.254;2024-03-23T05:59:03;1.40;;;1.10;;
4933;SDS011;2482;49.154;8.254;2024-03-23T06:01:29;1.43;;;1.20;;
4933;SDS011;2482;49.154;8.254;2024-03-23T06:03:58;1.20;;;1.10;;
4933;SDS011;2482;49.154;8.254;2024-03-23T06:06:26;1.37;;;1.27;;
4933;SDS011;2482;49.154;8.254;2024-03-23T06:08:55;1.37;;;1.00;;
4933;SDS011;2482;49.154;8.254;2024-03-23T06:11:21;0.90;;;0.90;;
4933;SDS011;2482;49.154;8.254;2024-03-23T06:13:47;0.80;;;0.70;;
4933;SDS011;2482;49.154;8.254;2024-03-23T06:16:13;1.00;;;1.00;;
4933;SDS011;2482;49.154;8.254;2024-03-23T06:18:40;0.80;;;0.77;;
4933;SDS011;2482;49.154;8.254;2024-03-23T06:21:12;0.83;;;0.83;;
4933;SDS011;2482;49.154;8.254;2024-03-23T06:23:40;1.93;;;1.00;;
4933;SDS011;2482;49.154;8.254;2024-03-23T06:26:07;1.00;;;0.90;;
4933;SDS011;2482;49.154;8.254;2024-03-23T06:28:34;1.00;;;0.90;;
4933;SDS011;2482;49.154;8.254;2024-03-23T06:31:00;0.70;;;0.70;;
4933;SDS011;2482;49.154;8.254;2024-03-23T06:33:26;2.40;;;0.90;;
4933;SDS011;2482;49.154;8.254;2024-03-23T06:35:53;0.80;;;0.80;;
4933;SDS011;2482;49.154;8.254;2024-03-23T06:38:21;0.60;;;0.60;;
4933;SDS011;2482;49.154;8.254;2024-03-23T06:40:47;0.90;;;0.70;;
4933;SDS011;2482;49.154;8.254;2024-03-23T06:43:16;0.90;;;0.80;;
4933;SDS011;2482;49.154;8.254;2024-03-23T06:45:42;0.70;;;0.60;;
4933;SDS011;2482;49.154;8.254;2024-03-23T06:48:08;0.60;;;0.60;;
4933;SDS011;2482;49.154;8.254;2024-03-23T06:53:04;0.60;;;0.60;;
4933;SDS011;2482;49.154;8.254;2024-03-23T06:55:31;1.77;;;0.50;;
4933;SDS011;2482;49.154;8.254;2024-03-23T06:57:58;0.70;;;0.50;;
4933;SDS011;2482;49.154;8.254;2024-03-23T07:00:25;0.70;;;0.53;;
4933;SDS011;2482;49.154;8.254;2024-03-23T07:02:51;0.50;;;0.50;;
4933;SDS011;2482;49.154;8.254;2024-03-23T07:05:17;0.53;;;0.53;;
4933;SDS011;2482;49.154;8.254;2024-03-23T07:07:43;0.50;;;0.50;;
4933;SDS011;2482;49.154;8.254;2024-03-23T07:10:10;0.60;;;0.60;;
4933;SDS011;2482;49.154;8.254;2024-03-23T07:12:37;0.50;;;0.50;;
4933;SDS011;2482;49.154;8.254;2024-03-23T07:15:06;0.60;;;0.60;;
4933;SDS011;2482;49.154;8.254;2024-03-23T07:17:33;1.00;;;0.60;;
4933;SDS011;2482;49.154;8.254;2024-03-23T07:20:00;0.57;;;0.50;;
4933;SDS011;2482;49.154;8.254;2024-03-23T07:22:32;0.60;;;0.60;;
4933;SDS011;2482;49.154;8.254;2024-03-23T07:25:01;1.10;;;0.70;;
4933;SDS011;2482;49.154;8.254;2024-03-23T07:27:28;0.80;;;0.73;;
4933;SDS011;2482;49.154;8.254;2024-03-23T07:29:54;1.23;;;0.70;;
4933;SDS011;2482;49.154;8.254;2024-03-23T07:32:21;0.70;;;0.70;;
4933;SDS011;2482;49.154;8.254;2024-03-23T07:34:47;0.90;;;0.70;;
4933;SDS011;2482;49.154;8.254;2024-03-23T07:37:14;2.87;;;0.90;;
4933;SDS011;2482;49.154;8.254;2024-03-23T07:39:41;2.20;;;0.90;;
4933;SDS011;2482;49.154;8.254;2024-03-23T07:42:07;4.97;;;1.37;;
4933;SDS011;2482;49.154;8.254;2024-03-23T07:44:34;1.80;;;1.40;;
4933;SDS011;2482;49.154;8.254;2024-03-23T07:47:00;4.40;;;1.40;;
4933;SDS011;2482;49.154;8.254;2024-03-23T07:49:27;3.43;;;1.60;;
4933;SDS011;2482;49.154;8.254;2024-03-23T07:51:53;7.50;;;2.17;;
4933;SDS011;2482;49.154;8.254;2024-03-23T07:54:20;9.87;;;1.70;;
4933;SDS011;2482;49.154;8.254;2024-03-23T07:56:46;2.70;;;1.33;;
4933;SDS011;2482;49.154;8.254;2024-03-23T07:59:13;3.60;;;1.50;;
4933;SDS011;2482;49.154;8.254;2024-03-23T08:01:40;6.40;;;1.97;;
4933;SDS011;2482;49.154;8.254;2024-03-23T08:04:06;4.03;;;1.90;;
4933;SDS011;2482;49.154;8.254;2024-03-23T08:06:32;6.23;;;2.17;;
4933;SDS011;2482;49.154;8.254;2024-03-23T08:08:58;6.30;;;2.63;;
4933;SDS011;2482;49.154;8.254;2024-03-23T08:11:32;6.30;;;1.80;;
4933;SDS011;2482;49.154;8.254;2024-03-23T08:14:02;6.50;;;2.17;;
4933;SDS011;2482;49.154;8.254;2024-03-23T08:16:29;6.07;;;2.23;;
4933;SDS011;2482;49.154;8.254;2024-03-23T08:18:55;5.03;;;2.50;;
4933;SDS011;2482;49.154;8.254;2024-03-23T08:21:21;6.07;;;1.93;;
4933;SDS011;2482;49.154;8.254;2024-03-23T08:23:47;3.57;;;2.00;;
4933;SDS011;2482;49.154;8.254;2024-03-23T08:26:15;6.13;;;2.50;;
4933;SDS011;2482;49.154;8.254;2024-03-23T08:28:43;4.53;;;3.00;;
4933;SDS011;2482;49.154;8.254;2024-03-23T08:31:10;7.10;;;2.73;;
4933;SDS011;2482;49.154;8.254;2024-03-23T08:33:38;5.47;;;2.50;;
4933;SDS011;2482;49.154;8.254;2024-03-23T08:36:05;8.57;;;2.10;;
4933;SDS011;2482;49.154;8.254;2024-03-23T08:38:34;3.37;;;1.90;;
4933;SDS011;2482;49.154;8.254;2024-03-23T08:41:01;7.70;;;2.70;;
4933;SDS011;2482;49.154;8.254;2024-03-23T08:43:29;7.50;;;2.93;;
4933;SDS011;2482;49.154;8.254;2024-03-23T08:46:09;5.77;;;2.93;;
4933;SDS011;2482;49.154;8.254;2024-03-23T08:51:14;7.13;;;2.90;;
4933;SDS011;2482;49.154;8.254;2024-03-23T08:53:42;10.40;;;2.90;;
4933;SDS011;2482;49.154;8.254;2024-03-23T08:56:09;5.13;;;2.57;;
4933;SDS011;2482;49.154;8.254;2024-03-23T08:58:36;3.30;;;2.23;;
4933;SDS011;2482;49.154;8.254;2024-03-23T09:01:04;4.33;;;2.30;;
4933;SDS011;2482;49.154;8.254;2024-03-23T09:03:34;5.13;;;1.90;;
4933;SDS011;2482;49.154;8.254;2024-03-23T09:06:02;5.07;;;2.20;;
4933;SDS011;2482;49.154;8.254;2024-03-23T09:08:33;12.13;;;2.43;;
4933;SDS011;2482;49.154;8.254;2024-03-23T09:11:08;6.03;;;2.13;;
4933;SDS011;2482;49.154;8.254;2024-03-23T09:13:37;7.07;;;2.10;;
4933;SDS011;2482;49.154;8.254;2024-03-23T09:16:05;10.33;;;2.57;;
4933;SDS011;2482;49.154;8.254;2024-03-23T09:18:32;3.87;;;2.20;;
4933;SDS011;2482;49.154;8.254;2024-03-23T09:21:00;4.57;;;2.37;;
4933;SDS011;2482;49.154;8.254;2024-03-23T09:23:28;10.30;;;3.37;;
4933;SDS011;2482;49.154;8.254;2024-03-23T09:25:54;8.23;;;2.77;;
4933;SDS011;2482;49.154;8.254;2024-03-23T09:28:20;6.77;;;2.00;;
4933;SDS011;2482;49.154;8.254;2024-03-23T09:30:47;5.50;;;2.50;;
4933;SDS011;2482;49.154;8.254;2024-03-23T09:33:13;6.80;;;2.30;;
4933;SDS011;2482;49.154;8.254;2024-03-23T09:35:40;9.97;;;2.80;;
4933;SDS011;2482;49.154;8.254;2024-03-23T09:38:08;6.23;;;2.60;;
4933;SDS011;2482;49.154;8.254;2024-03-23T09:40:35;6.37;;;3.97;;
4933;SDS011;2482;49.154;8.254;2024-03-23T09:43:07;10.83;;;2.40;;
4933;SDS011;2482;49.154;8.254;2024-03-23T09:45:36;8.53;;;2.13;;
4933;SDS011;2482;49.154;8.254;2024-03-23T09:48:08;6.00;;;2.40;;
4933;SDS011;2482;49.154;8.254;2024-03-23T09:53:12;3.60;;;1.80;;
4933;SDS011;2482;49.154;8.254;2024-03-23T09:55:40;4.83;;;2.33;;
4933;SDS011;2482;49.154;8.254;2024-03-23T09:58:08;7.37;;;2.60;;
4933;SDS011;2482;49.154;8.254;2024-03-23T10:00:39;4.33;;;1.90;;
4933;SDS011;2482;49.154;8.254;2024-03-23T10:03:05;6.43;;;2.37;;
4933;SDS011;2482;49.154;8.254;2024-03-23T10:05:32;5.63;;;2.53;;
4933;SDS011;2482;49.154;8.254;2024-03-23T10:08:17;6.10;;;1.90;;
4933;SDS011;2482;49.154;8.254;2024-03-23T10:10:45;3.57;;;2.17;;
4933;SDS011;2482;49.154;8.254;2024-03-23T10:13:33;10.97;;;2.73;;
4933;SDS011;2482;49.154;8.254;2024-03-23T10:15:59;8.30;;;2.17;;
4933;SDS011;2482;49.154;8.254;2024-03-23T10:18:25;6.20;;;2.60;;
4933;SDS011;2482;49.154;8.254;2024-03-23T10:21:08;8.33;;;2.70;;
4933;SDS011;2482;49.154;8.254;2024-03-23T10:23:37;4.00;;;2.20;;
4933;SDS011;2482;49.154;8.254;2024-03-23T10:26:15;7.03;;;2.70;;
4933;SDS011;2482;49.154;8.254;2024-03-23T10:31:27;5.67;;;2.50;;
4933;SDS011;2482;49.154;8.254;2024-03-23T10:33:54;6.80;;;2.60;;
4933;SDS011;2482;49.154;8.254;2024-03-23T10:36:21;7.07;;;2.13;;
4933;SDS011;2482;49.154;8.254;2024-03-23T10:38:49;4.97;;;2.97;;
4933;SDS011;2482;49.154;8.254;2024-03-23T10:41:17;5.17;;;2.40;;
4933;SDS011;2482;49.154;8.254;2024-03-23T10:43:48;6.10;;;2.37;;
4933;SDS011;2482;49.154;8.254;2024-03-23T10:46:15;4.57;;;2.40;;
4933;SDS011;2482;49.154;8.254;2024-03-23T10:48:41;2.97;;;1.90;;
4933;SDS011;2482;49.154;8.254;2024-03-23T10:51:08;3.83;;;1.93;;
4933;SDS011;2482;49.154;8.254;2024-03-23T10:53:36;3.40;;;2.63;;
4933;SDS011;2482;49.154;8.254;2024-03-23T10:56:05;5.60;;;2.53;;
4933;SDS011;2482;49.154;8.254;2024-03-23T10:58:36;5.50;;;1.80;;
4933;SDS011;2482;49.154;8.254;2024-03-23T11:01:05;7.47;;;3.50;;
4933;SDS011;2482;49.154;8.254;2024-03-23T11:03:33;5.83;;;2.40;;
4933;SDS011;2482;49.154;8.254;2024-03-23T11:06:05;8.40;;;3.17;;
4933;SDS011;2482;49.154;8.254;2024-03-23T11:08:34;8.10;;;2.40;;
4933;SDS011;2482;49.154;8.254;2024-03-23T11:14:00;12.13;;;2.43;;
4933;SDS011;2482;49.154;8.254;2024-03-23T11:16:38;5.70;;;1.60;;
4933;SDS011;2482;49.154;8.254;2024-03-23T11:22:03;6.37;;;1.80;;
4933;SDS011;2482;49.154;8.254;2024-03-23T11:24:30;3.30;;;1.30;;
4933;SDS011;2482;49.154;8.254;2024-03-23T11:26:59;6.23;;;2.17;;
4933;SDS011;2482;49.154;8.254;2024-03-23T11:29:29;4.07;;;1.20;;
4933;SDS011;2482;49.154;8.254;2024-03-23T11:31:56;2.30;;;1.10;;
4933;SDS011;2482;49.154;8.254;2024-03-23T11:34:23;3.13;;;1.40;;
4933;SDS011;2482;49.154;8.254;2024-03-23T11:36:49;2.50;;;1.80;;
4933;SDS011;2482;49.154;8.254;2024-03-23T11:39:19;5.40;;;1.83;;
4933;SDS011;2482;49.154;8.254;2024-03-23T11:44:17;3.57;;;1.50;;
4933;SDS011;2482;49.154;8.254;2024-03-23T11:46:44;4.53;;;1.67;;
4933;SDS011;2482;49.154;8.254;2024-03-23T11:49:24;4.60;;;1.60;;
4933;SDS011;2482;49.154;8.254;2024-03-23T11:51:52;1.80;;;1.13;;
4933;SDS011;2482;49.154;8.254;2024-03-23T11:54:24;2.73;;;1.17;;
4933;SDS011;2482;49.154;8.254;2024-03-23T11:56:59;4.23;;;1.40;;
4933;SDS011;2482;49.154;8.254;2024-03-23T11:59:41;2.60;;;1.33;;
4933;SDS011;2482;49.154;8.254;2024-03-23T12:02:10;6.07;;;1.60;;
4933;SDS011;2482;49.154;8.254;2024-03-23T12:04:41;3.63;;;1.40;;
4933;SDS011;2482;49.154;8.254;2024-03-23T12:07:11;2.80;;;1.43;;
4933;SDS011;2482;49.154;8.254;2024-03-23T12:10:07;2.17;;;1.20;;
4933;SDS011;2482;49.154;8.254;2024-03-23T12:12:33;5.50;;;1.50;;
4933;SDS011;2482;49.154;8.254;2024-03-23T12:15:09;2.40;;;1.57;;
4933;SDS011;2482;49.154;8.254;2024-03-23T12:17:36;2.63;;;1.33;;
4933;SDS011;2482;49.154;8.254;2024-03-23T12:20:02;2.90;;;1.50;;
4933;SDS011;2482;49.154;8.254;2024-03-23T12:22:29;4.83;;;1.50;;
4933;SDS011;2482;49.154;8.254;2024-03-23T12:24:55;6.10;;;2.00;;
4933;SDS011;2482;49.154;8.254;2024-03-23T12:27:22;2.90;;;1.50;;
4933;SDS011;2482;49.154;8.254;2024-03-23T12:29:48;4.23;;;1.40;;
4933;SDS011;2482;49.154;8.254;2024-03-23T12:32:14;3.33;;;1.53;;
4933;SDS011;2482;49.154;8.254;2024-03-23T12:34:41;3.40;;;1.40;;
4933;SDS011;2482;49.154;8.254;2024-03-23T12:37:08;3.73;;;1.57;;
4933;SDS011;2482;49.154;8.254;2024-03-23T12:39:37;4.40;;;1.80;;
4933;SDS011;2482;49.154;8.254;2024-03-23T12:42:04;4.00;;;1.30;;
4933;SDS011;2482;49.154;8.254;2024-03-23T12:44:31;3.03;;;1.10;;
4933;SDS011;2482;49.154;8.254;2024-03-23T12:46:57;2.10;;;0.90;;
4933;SDS011;2482;49.154;8.254;2024-03-23T12:49:23;2.13;;;1.00;;
4933;SDS011;2482;49.154;8.254;2024-03-23T12:51:53;1.00;;;0.73;;
4933;SDS011;2482;49.154;8.254;2024-03-23T12:54:22;3.33;;;1.20;;
4933;SDS011;2482;49.154;8.254;2024-03-23T12:56:50;0.70;;;0.70;;
4933;SDS011;2482;49.154;8.254;2024-03-23T12:59:16;1.33;;;0.80;;
4933;SDS011;2482;49.154;8.254;2024-03-23T13:01:44;3.90;;;0.90;;
4933;SDS011;2482;49.154;8.254;2024-03-23T13:04:11;1.53;;;0.80;;
4933;SDS011;2482;49.154;8.254;2024-03-23T13:06:37;1.17;;;1.07;;
4933;SDS011;2482;49.154;8.254;2024-03-23T13:09:04;1.17;;;0.70;;
4933;SDS011;2482;49.154;8.254;2024-03-23T13:11:31;1.80;;;0.73;;
4933;SDS011;2482;49.154;8.254;2024-03-23T13:13:58;1.33;;;0.97;;
4933;SDS011;2482;49.154;8.254;2024-03-23T13:16:24;1.13;;;0.60;;
4933;SDS011;2482;49.154;8.254;2024-03-23T13:18:50;1.93;;;0.77;;
4933;SDS011;2482;49.154;8.254;2024-03-23T13:21:16;2.67;;;1.00;;
4933;SDS011;2482;49.154;8.254;2024-03-23T13:23:45;1.17;;;0.80;;
4933;SDS011;2482;49.154;8.254;2024-03-23T13:26:14;1.70;;;0.70;;
4933;SDS011;2482;49.154;8.254;2024-03-23T13:28:41;2.17;;;0.83;;
4933;SDS011;2482;49.154;8.254;2024-03-23T13:31:07;1.60;;;0.70;;
4933;SDS011;2482;49.154;8.254;2024-03-23T13:33:33;0.80;;;0.67;;
4933;SDS011;2482;49.154;8.254;2024-03-23T13:36:00;2.60;;;0.90;;
4933;SDS011;2482;49.154;8.254;2024-03-23T13:38:27;4.00;;;0.87;;
4933;SDS011;2482;49.154;8.254;2024-03-23T13:43:22;3.23;;;0.93;;
4933;SDS011;2482;49.154;8.254;2024-03-23T13:48:26;1.30;;;0.83;;
4933;SDS011;2482;49.154;8.254;2024-03-23T13:51:03;2.10;;;0.90;;
4933;SDS011;2482;49.154;8.254;2024-03-23T13:53:30;1.80;;;0.80;;
4933;SDS011;2482;49.154;8.254;2024-03-23T13:55:59;0.77;;;0.60;;
4933;SDS011;2482;49.154;8.254;2024-03-23T13:58:26;1.73;;;1.03;;
4933;SDS011;2482;49.154;8.254;2024-03-23T14:00:52;0.77;;;0.77;;
4933;SDS011;2482;49.154;8.254;2024-03-23T14:03:18;2.00;;;0.90;;
4933;SDS011;2482;49.154;8.254;2024-03-23T14:05:45;3.90;;;0.80;;
4933;SDS011;2482;49.154;8.254;2024-03-23T14:08:12;3.50;;;1.40;;
4933;SDS011;2482;49.154;8.254;2024-03-23T14:10:42;0.80;;;0.70;;
4933;SDS011;2482;49.154;8.254;2024-03-23T14:13:08;7.80;;;0.80;;
4933;SDS011;2482;49.154;8.254;2024-03-23T14:15:34;1.43;;;0.90;;
4933;SDS011;2482;49.154;8.254;2024-03-23T14:18:02;2.97;;;1.00;;
4933;SDS011;2482;49.154;8.254;2024-03-23T14:20:29;0.70;;;0.70;;
4933;SDS011;2482;49.154;8.254;2024-03-23T14:22:55;3.07;;;0.90;;
4933;SDS011;2482;49.154;8.254;2024-03-23T14:25:21;2.20;;;1.07;;
4933;SDS011;2482;49.154;8.254;2024-03-23T14:27:52;0.80;;;0.70;;
4933;SDS011;2482;49.154;8.254;2024-03-23T14:30:19;3.80;;;0.90;;
4933;SDS011;2482;49.154;8.254;2024-03-23T14:32:45;1.67;;;1.00;;
4933;SDS011;2482;49.154;8.254;2024-03-23T14:35:11;2.97;;;1.03;;
4933;SDS011;2482;49.154;8.254;2024-03-23T14:37:37;4.20;;;1.00;;
4933;SDS011;2482;49.154;8.254;2024-03-23T14:40:04;3.23;;;0.83;;
4933;SDS011;2482;49.154;8.254;2024-03-23T14:42:31;2.47;;;1.10;;
4933;SDS011;2482;49.154;8.254;2024-03-23T14:44:58;1.10;;;0.70;;
4933;SDS011;2482;49.154;8.254;2024-03-23T14:47:24;4.20;;;1.03;;
4933;SDS011;2482;49.154;8.254;2024-03-23T14:49:52;1.10;;;0.60;;
4933;SDS011;2482;49.154;8.254;2024-03-23T14:52:19;1.00;;;0.90;;
4933;SDS011;2482;49.154;8.254;2024-03-23T14:54:46;2.33;;;0.93;;
4933;SDS011;2482;49.154;8.254;2024-03-23T14:57:13;2.13;;;0.90;;
4933;SDS011;2482;49.154;8.254;2024-03-23T14:59:39;4.47;;;1.47;;
4933;SDS011;2482;49.154;8.254;2024-03-23T15:02:06;3.50;;;1.10;;
4933;SDS011;2482;49.154;8.254;2024-03-23T15:04:33;1.10;;;0.97;;
4933;SDS011;2482;49.154;8.254;2024-03-23T15:06:59;1.47;;;0.77;;
4933;SDS011;2482;49.154;8.254;2024-03-23T15:09:26;7.40;;;1.30;;
4933;SDS011;2482;49.154;8.254;2024-03-23T15:11:52;1.90;;;1.00;;
4933;SDS011;2482;49.154;8.254;2024-03-23T15:14:20;2.87;;;0.90;;
4933;SDS011;2482;49.154;8.254;2024-03-23T15:16:46;1.47;;;0.80;;
4933;SDS011;2482;49.154;8.254;2024-03-23T15:19:14;2.37;;;1.20;;
4933;SDS011;2482;49.154;8.254;2024-03-23T15:21:42;1.20;;;0.80;;
4933;SDS011;2482;49.154;8.254;2024-03-23T15:24:09;3.83;;;0.87;;
4933;SDS011;2482;49.154;8.254;2024-03-23T15:26:39;3.00;;;0.80;;
4933;SDS011;2482;49.154;8.254;2024-03-23T15:29:07;1.33;;;1.20;;
4933;SDS011;2482;49.154;8.254;2024-03-23T15:31:37;3.50;;;0.93;;
4933;SDS011;2482;49.154;8.254;2024-03-23T15:34:03;3.30;;;1.00;;
4933;SDS011;2482;49.154;8.254;2024-03-23T15:36:30;4.90;;;1.10;;
4933;SDS011;2482;49.154;8.254;2024-03-23T15:38:56;2.53;;;1.00;;
4933;SDS011;2482;49.154;8.254;2024-03-23T15:41:23;0.80;;;0.70;;
4933;SDS011;2482;49.154;8.254;2024-03-23T15:43:51;2.30;;;0.87;;
4933;SDS011;2482;49.154;8.254;2024-03-23T15:46:18;3.57;;;0.80;;
4933;SDS011;2482;49.154;8.254;2024-03-23T15:48:44;6.63;;;1.20;;
4933;SDS011;2482;49.154;8.254;2024-03-23T15:51:14;1.13;;;0.80;;
4933;SDS011;2482;49.154;8.254;2024-03-23T15:53:40;3.20;;;1.00;;
4933;SDS011;2482;49.154;8.254;2024-03-23T15:56:08;7.30;;;0.90;;
4933;SDS011;2482;49.154;8.254;2024-03-23T15:58:34;4.00;;;1.13;;
4933;SDS011;2482;49.154;8.254;2024-03-23T16:01:01;2.63;;;1.23;;
4933;SDS011;2482;49.154;8.254;2024-03-23T16:03:28;1.97;;;1.20;;
4933;SDS011;2482;49.154;8.254;2024-03-23T16:06:02;0.83;;;0.83;;
4933;SDS011;2482;49.154;8.254;2024-03-23T16:08:30;1.20;;;0.80;;
4933;SDS011;2482;49.154;8.254;2024-03-23T16:11:04;2.40;;;0.90;;
4933;SDS011;2482;49.154;8.254;2024-03-23T16:13:32;3.77;;;0.90;;
4933;SDS011;2482;49.154;8.254;2024-03-23T16:16:05;2.07;;;0.90;;
4933;SDS011;2482;49.154;8.254;2024-03-23T16:18:32;3.13;;;1.40;;
4933;SDS011;2482;49.154;8.254;2024-03-23T16:21:03;6.00;;;1.37;;
4933;SDS011;2482;49.154;8.254;2024-03-23T16:26:06;2.23;;;1.40;;
4933;SDS011;2482;49.154;8.254;2024-03-23T16:28:33;2.20;;;1.00;;
4933;SDS011;2482;49.154;8.254;2024-03-23T16:31:04;6.90;;;1.20;;
4933;SDS011;2482;49.154;8.254;2024-03-23T16:33:32;4.63;;;1.50;;